Time;durP1;ratioP1;P1;durP2;ratioP2;P2;SDS_P1;SDS_P2;PMS_P1;PMS_P2;Temp;Humidity;BMP_temperature;BMP_pressure;BME280_temperature;BME280_humidity;BME280_pressure;Samples;Min_cycle;Max_cycle;Signal;HPM_P1;HPM_P2
2023/12/31 00:01:34;;;;;;;3.57;1.20;;;;;;;16.52;54.49;100327.06;5062100;28;20038;-75
2023/12/31 00:03:59;;;;;;;1.27;1.07;;;;;;;16.67;54.67;100313.22;5051003;28;20028;-75
2023/12/31 00:06:25;;;;;;;2.77;1.17;;;;;;;15.51;57.73;100320.56;5067489;28;20476;-75
2023/12/31 00:08:51;;;;;;;3.27;1.70;;;;;;;16.22;55.98;100314.25;5050834;28;20078;-75
2023/12/31 00:11:16;;;;;;;1.90;1.10;;;;;;;16.25;55.72;100295.66;5065880;28;20036;-75
2023/12/31 00:13:41;;;;;;;2.13;1.13;;;;;;;16.47;54.77;100305.31;5053222;28;20060;-75
2023/12/31 00:16:12;;;;;;;0.90;0.90;;;;;;;16.26;55.36;100302.66;5031410;28;20448;-75
2023/12/31 00:18:37;;;;;;;4.57;1.10;;;;;;;16.65;54.03;100293.09;5047692;28;20033;-75
2023/12/31 00:21:03;;;;;;;1.07;0.87;;;;;;;16.69;53.78;100290.28;5053149;28;20404;-75
2023/12/31 00:23:29;;;;;;;1.80;0.87;;;;;;;16.67;53.52;100294.75;5050521;28;20029;-75
2023/12/31 00:25:54;;;;;;;0.93;0.83;;;;;;;16.47;54.06;100290.31;5059348;28;20392;-75
2023/12/31 00:28:19;;;;;;;1.20;1.07;;;;;;;16.28;54.65;100291.13;5056057;28;20029;-75
2023/12/31 00:30:45;;;;;;;5.13;0.90;;;;;;;16.49;54.04;100277.09;5054082;28;20059;-75
2023/12/31 00:33:10;;;;;;;1.07;0.53;;;;;;;16.26;53.93;100277.13;5052467;28;20037;-75
2023/12/31 00:35:36;;;;;;;1.00;0.80;;;;;;;16.14;53.81;100276.81;5045515;28;20029;-75
2023/12/31 00:38:01;;;;;;;0.70;0.70;;;;;;;16.39;54.57;100266.94;5051695;28;20029;-75
2023/12/31 00:40:26;;;;;;;3.13;0.77;;;;;;;16.28;52.71;100263.91;5047809;28;20059;-75
2023/12/31 00:42:52;;;;;;;3.20;1.27;;;;;;;16.63;52.94;100264.13;5054084;28;20476;-76
2023/12/31 00:45:17;;;;;;;2.80;1.07;;;;;;;16.20;52.50;100260.75;5050350;28;20470;-75
2023/12/31 00:47:43;;;;;;;1.17;0.87;;;;;;;16.45;53.25;100250.81;5067759;28;20090;-75
2023/12/31 00:50:08;;;;;;;0.93;0.70;;;;;;;16.93;51.83;100245.25;5054854;28;20484;-75
2023/12/31 00:52:33;;;;;;;9.77;1.13;;;;;;;16.06;52.93;100242.84;5078611;28;20090;-74
2023/12/31 00:54:59;;;;;;;0.97;0.60;;;;;;;16.01;53.73;100237.78;5068286;28;20524;-75
2023/12/31 00:57:24;;;;;;;0.77;0.70;;;;;;;16.61;52.16;100231.72;5049451;28;20091;-75
2023/12/31 00:59:50;;;;;;;1.90;0.73;;;;;;;16.12;53.33;100221.50;5066673;28;20123;-75
2023/12/31 01:02:15;;;;;;;0.53;0.53;;;;;;;16.54;52.37;100227.59;5072250;28;20033;-75
2023/12/31 01:04:40;;;;;;;4.07;1.10;;;;;;;16.42;51.82;100224.59;5049299;28;20060;-74
2023/12/31 01:07:06;;;;;;;2.93;1.00;;;;;;;16.07;52.62;100213.81;5061166;28;20454;-75
2023/12/31 01:09:32;;;;;;;2.10;0.80;;;;;;;15.45;54.31;100204.91;5085067;28;20024;-74
2023/12/31 01:11:58;;;;;;;3.50;1.10;;;;;;;15.54;53.51;100204.53;5059013;28;20476;-75
2023/12/31 01:14:24;;;;;;;1.07;0.63;;;;;;;16.08;52.20;100197.06;5059467;28;20477;-75
2023/12/31 01:16:49;;;;;;;1.40;0.70;;;;;;;16.49;50.95;100197.97;5056931;28;20042;-74
2023/12/31 01:19:16;;;;;;;0.73;0.53;;;;;;;16.45;51.21;100192.81;5068260;28;20113;-75
2023/12/31 01:21:41;;;;;;;1.83;0.60;;;;;;;15.98;52.22;100182.56;5054094;28;20040;-75
2023/12/31 01:24:07;;;;;;;3.77;0.97;;;;;;;16.08;52.33;100177.75;5060513;28;20029;-75
2023/12/31 01:26:32;;;;;;;0.50;0.50;;;;;;;16.01;52.26;100171.88;5053148;28;20024;-74
2023/12/31 01:28:58;;;;;;;2.67;0.60;;;;;;;16.03;52.09;100164.78;5069996;28;20025;-75
2023/12/31 01:31:24;;;;;;;3.47;0.57;;;;;;;16.90;50.14;100161.78;5055411;28;20025;-75
2023/12/31 01:33:49;;;;;;;3.23;1.00;;;;;;;16.47;50.72;100166.34;5048413;28;20037;-75
2023/12/31 01:36:20;;;;;;;3.53;0.80;;;;;;;16.36;50.54;100166.84;5049798;28;20021;-75
2023/12/31 01:38:45;;;;;;;3.93;0.60;;;;;;;16.29;51.16;100165.41;5068322;28;20055;-75
2023/12/31 01:41:11;;;;;;;1.30;0.70;;;;;;;16.04;50.91;100155.94;5062315;28;20060;-74
2023/12/31 01:43:37;;;;;;;2.17;1.00;;;;;;;16.02;51.40;100157.78;5066678;28;20017;-74
2023/12/31 01:46:07;;;;;;;3.20;0.60;;;;;;;16.44;50.53;100143.63;5071022;28;20361;-75
2023/12/31 01:48:34;;;;;;;2.00;1.07;;;;;;;16.47;50.34;100131.22;5052212;28;20049;-74
2023/12/31 01:51:01;;;;;;;0.57;0.50;;;;;;;16.04;50.60;100134.00;5049630;28;20028;-75
2023/12/31 01:53:27;;;;;;;0.90;0.70;;;;;;;16.70;49.77;100127.53;5064539;28;20126;-75
2023/12/31 01:55:54;;;;;;;1.50;0.73;;;;;;;17.16;48.83;100119.22;5068189;28;20021;-75
2023/12/31 01:58:20;;;;;;;3.90;0.60;;;;;;;17.08;48.00;100117.81;5068838;28;20391;-75
2023/12/31 02:00:45;;;;;;;0.70;0.57;;;;;;;16.06;50.63;100133.00;5068526;28;20028;-75
2023/12/31 02:03:13;;;;;;;2.83;0.90;;;;;;;16.73;49.04;100120.31;5053460;28;20393;-74
2023/12/31 02:05:38;;;;;;;3.80;0.67;;;;;;;16.63;49.44;100111.13;5045786;28;20022;-74
2023/12/31 02:08:04;;;;;;;0.57;0.57;;;;;;;16.93;48.86;100097.44;5059132;28;20024;-75
2023/12/31 02:10:29;;;;;;;2.67;0.67;;;;;;;16.88;48.47;100089.69;5069483;28;20365;-75
2023/12/31 02:12:56;;;;;;;0.70;0.70;;;;;;;16.84;49.25;100097.84;5064987;28;20021;-75
2023/12/31 02:15:34;;;;;;;0.87;0.73;;;;;;;17.29;47.78;100083.34;5068925;28;20031;-75
2023/12/31 02:18:01;;;;;;;0.60;0.60;;;;;;;15.89;50.28;100090.72;5061415;28;20111;-75
2023/12/31 02:20:30;;;;;;;1.70;0.80;;;;;;;16.08;50.05;100086.34;5049486;28;20671;-74
2023/12/31 02:22:57;;;;;;;0.70;0.70;;;;;;;16.82;48.86;100062.75;5050838;28;20083;-75
2023/12/31 02:25:27;;;;;;;2.50;0.90;;;;;;;17.19;47.86;100055.72;5036965;28;20029;-75
2023/12/31 02:27:53;;;;;;;1.07;0.87;;;;;;;16.66;48.41;100037.09;5055146;28;20043;-75
2023/12/31 02:30:19;;;;;;;2.53;0.80;;;;;;;16.78;48.82;100035.66;5068770;28;20535;-75
2023/12/31 02:32:45;;;;;;;2.17;0.90;;;;;;;16.85;48.17;100041.50;5059651;28;20074;-74
2023/12/31 02:35:10;;;;;;;1.00;0.70;;;;;;;16.87;47.74;100013.22;5046042;28;20056;-75
2023/12/31 02:37:36;;;;;;;4.13;1.10;;;;;;;16.32;49.46;100024.66;5045362;28;20458;-75
2023/12/31 02:40:01;;;;;;;0.97;0.80;;;;;;;16.89;48.42;100011.41;5064481;28;20096;-75
2023/12/31 02:42:27;;;;;;;2.23;1.20;;;;;;;16.58;48.47;100012.84;5048692;28;20047;-75
2023/12/31 02:44:52;;;;;;;2.17;1.30;;;;;;;17.42;47.46;100005.22;5068927;28;20028;-75
2023/12/31 02:47:17;;;;;;;3.73;1.10;;;;;;;16.36;49.41;100002.47;5069000;28;20559;-75
2023/12/31 02:49:43;;;;;;;1.83;1.23;;;;;;;16.44;49.46;99993.28;5050789;28;20029;-74
2023/12/31 02:52:11;;;;;;;2.07;0.97;;;;;;;16.17;49.85;99998.09;5044801;28;20025;-75
2023/12/31 02:54:37;;;;;;;2.07;1.13;;;;;;;16.89;48.81;99991.13;5051255;28;20025;-75
2023/12/31 02:57:06;;;;;;;3.87;1.70;;;;;;;16.79;48.41;99982.78;5050015;28;20021;-75
2023/12/31 02:59:32;;;;;;;1.70;1.20;;;;;;;16.40;49.10;99972.41;5063284;28;20082;-75
2023/12/31 03:01:58;;;;;;;2.67;1.27;;;;;;;16.69;48.80;99973.63;5064876;28;20033;-75
2023/12/31 03:04:23;;;;;;;0.83;0.83;;;;;;;16.60;49.80;99971.44;5044106;28;20071;-75
2023/12/31 03:06:51;;;;;;;6.13;0.80;;;;;;;16.21;50.02;99969.78;5047907;28;20486;-75
2023/12/31 03:09:17;;;;;;;0.63;0.63;;;;;;;16.64;49.23;99959.81;5053984;28;20032;-75
2023/12/31 03:11:43;;;;;;;1.73;0.93;;;;;;;16.14;50.27;99947.28;5051873;28;20028;-75
2023/12/31 03:14:08;;;;;;;1.40;0.60;;;;;;;16.90;48.58;99944.50;5061977;28;20028;-75
2023/12/31 03:16:33;;;;;;;2.47;0.97;;;;;;;16.60;48.72;99937.16;5072385;28;20489;-75
2023/12/31 03:18:59;;;;;;;0.87;0.77;;;;;;;15.50;51.01;99936.13;5066525;28;20032;-75
2023/12/31 03:21:24;;;;;;;1.90;0.70;;;;;;;15.95;50.22;99924.44;5056143;28;20025;-75
2023/12/31 03:23:50;;;;;;;2.87;1.07;;;;;;;15.80;50.77;99922.47;5057314;28;20037;-74
2023/12/31 03:26:15;;;;;;;0.83;0.70;;;;;;;15.88;50.67;99913.31;5068412;28;20122;-75
2023/12/31 03:28:41;;;;;;;1.17;0.70;;;;;;;15.43;51.61;99907.41;5058047;28;20040;-75
2023/12/31 03:31:08;;;;;;;1.87;1.10;;;;;;;15.91;50.30;99901.78;5059670;28;20523;-75
2023/12/31 03:33:34;;;;;;;1.00;0.80;;;;;;;16.20;49.62;99889.00;5053517;28;20031;-75
2023/12/31 03:35:59;;;;;;;2.33;1.07;;;;;;;16.44;49.29;99879.88;5070351;28;20028;-75
2023/12/31 03:38:24;;;;;;;1.10;0.87;;;;;;;16.14;50.45;99866.41;5054101;28;20412;-75
2023/12/31 03:40:50;;;;;;;1.30;1.03;;;;;;;16.20;50.33;99867.91;5059522;28;20073;-75
2023/12/31 03:43:15;;;;;;;3.40;0.77;;;;;;;16.08;49.93;99856.16;5052198;28;20029;-75
2023/12/31 03:45:40;;;;;;;2.73;0.90;;;;;;;16.68;48.70;99850.56;5073086;28;20099;-75
2023/12/31 03:48:06;;;;;;;1.63;0.93;;;;;;;16.21;50.13;99853.78;5058468;28;20428;-76
2023/12/31 03:50:32;;;;;;;1.33;0.90;;;;;;;16.36;49.51;99845.13;5056175;28;20063;-75
2023/12/31 03:52:57;;;;;;;2.27;1.20;;;;;;;16.22;49.70;99837.88;5044084;28;20114;-75
2023/12/31 03:55:23;;;;;;;2.63;0.90;;;;;;;16.14;50.15;99828.66;5066459;28;20028;-75
2023/12/31 03:57:49;;;;;;;1.00;0.73;;;;;;;15.88;50.12;99822.84;5056709;28;20201;-75
2023/12/31 04:00:15;;;;;;;1.37;0.90;;;;;;;16.13;50.42;99821.66;5058991;28;20032;-75
2023/12/31 04:02:40;;;;;;;2.37;0.70;;;;;;;16.13;50.33;99811.13;5050984;28;20032;-75
2023/12/31 04:05:06;;;;;;;0.70;0.70;;;;;;;16.24;50.07;99808.81;5062695;28;20082;-75
2023/12/31 04:07:31;;;;;;;1.30;0.83;;;;;;;16.05;50.39;99804.44;5057573;28;20400;-75
2023/12/31 04:09:57;;;;;;;1.57;0.90;;;;;;;16.33;49.97;99802.22;5044049;28;20071;-76
2023/12/31 04:12:22;;;;;;;1.13;0.77;;;;;;;15.88;50.50;99801.78;5071913;28;20111;-76
2023/12/31 04:14:47;;;;;;;1.20;0.90;;;;;;;15.87;50.82;99777.22;5067523;28;20032;-75
2023/12/31 04:17:13;;;;;;;2.80;1.30;;;;;;;15.41;51.77;99761.81;5052042;28;20055;-76
2023/12/31 04:19:38;;;;;;;1.50;1.07;;;;;;;16.16;50.40;99753.00;5051794;28;20479;-75
2023/12/31 04:22:04;;;;;;;4.03;0.90;;;;;;;16.04;50.97;99739.47;5063150;28;20021;-76
2023/12/31 04:24:29;;;;;;;3.43;1.03;;;;;;;15.63;51.01;99737.06;5051329;28;20122;-76
2023/12/31 04:26:57;;;;;;;2.60;1.03;;;;;;;15.84;51.29;99743.13;5061780;28;20128;-75
2023/12/31 04:29:22;;;;;;;1.97;0.97;;;;;;;16.51;49.48;99747.69;5051979;28;20021;-75
2023/12/31 04:31:48;;;;;;;1.20;0.83;;;;;;;16.32;48.97;99732.81;5051821;28;20043;-75
2023/12/31 04:34:13;;;;;;;5.27;1.03;;;;;;;15.95;51.04;99734.69;5051465;28;20036;-75
2023/12/31 04:36:43;;;;;;;1.10;1.03;;;;;;;15.91;51.13;99733.13;5056617;28;20052;-76
2023/12/31 04:39:09;;;;;;;3.83;1.23;;;;;;;15.74;50.78;99720.75;5031532;28;20572;-76
2023/12/31 04:41:35;;;;;;;0.63;0.63;;;;;;;16.07;50.49;99718.25;5049532;28;20037;-75
2023/12/31 04:44:00;;;;;;;2.33;1.30;;;;;;;15.98;50.42;99713.44;5051771;28;20383;-74
2023/12/31 04:46:25;;;;;;;3.07;0.87;;;;;;;15.75;50.66;99711.91;5064969;28;20068;-76
2023/12/31 04:48:51;;;;;;;1.50;1.03;;;;;;;16.51;50.05;99695.78;5070874;28;20052;-75
2023/12/31 04:51:42;;;;;;;0.97;0.90;;;;;;;15.88;51.05;99693.75;5053115;28;20079;-75
2023/12/31 04:54:08;;;;;;;1.00;0.90;;;;;;;15.62;51.81;99695.88;5050581;28;20418;-76
2023/12/31 04:56:34;;;;;;;1.20;0.83;;;;;;;15.94;50.66;99693.44;5074256;28;20029;-75
2023/12/31 04:59:00;;;;;;;1.67;1.13;;;;;;;16.03;50.86;99678.94;5052306;28;20021;-76
2023/12/31 05:01:31;;;;;;;1.13;0.93;;;;;;;16.09;50.47;99674.22;5058679;28;20024;-76
2023/12/31 05:03:58;;;;;;;4.67;1.13;;;;;;;15.82;51.23;99671.19;5054411;28;20117;-75
2023/12/31 05:06:24;;;;;;;0.87;0.80;;;;;;;16.73;49.63;99655.06;5056120;28;20020;-76
2023/12/31 05:08:50;;;;;;;4.53;1.00;;;;;;;16.49;49.33;99659.91;5063439;28;20025;-76
2023/12/31 05:11:15;;;;;;;1.87;1.17;;;;;;;16.20;50.53;99654.38;5070925;28;20051;-76
2023/12/31 05:13:42;;;;;;;2.80;1.50;;;;;;;15.95;51.96;99653.00;5070271;28;20031;-75
2023/12/31 05:16:10;;;;;;;3.73;0.97;;;;;;;15.94;50.80;99632.84;5062876;28;20533;-76
2023/12/31 05:18:36;;;;;;;1.60;1.10;;;;;;;15.61;51.15;99641.47;5069344;28;20028;-76
2023/12/31 05:21:01;;;;;;;3.17;1.30;;;;;;;16.02;51.26;99625.38;5057120;28;20564;-75
2023/12/31 05:23:27;;;;;;;1.57;1.30;;;;;;;15.66;51.77;99617.53;5070248;28;20028;-75
2023/12/31 05:25:53;;;;;;;1.40;1.00;;;;;;;16.42;50.35;99607.47;5070013;28;20035;-76
2023/12/31 05:28:18;;;;;;;1.60;1.10;;;;;;;16.03;51.17;99616.56;5066450;28;20366;-76
2023/12/31 05:30:44;;;;;;;1.00;0.70;;;;;;;15.87;51.22;99605.09;5046365;28;20017;-76
2023/12/31 05:33:12;;;;;;;2.27;1.20;;;;;;;15.78;51.46;99594.06;5066212;28;20025;-75
2023/12/31 05:35:38;;;;;;;3.33;1.60;;;;;;;16.14;50.37;99586.97;5040575;28;20116;-76
2023/12/31 05:38:04;;;;;;;1.10;1.00;;;;;;;16.22;50.69;99583.94;5063956;28;20021;-76
2023/12/31 05:40:29;;;;;;;1.27;0.83;;;;;;;16.21;50.73;99576.97;5048937;28;20029;-75
2023/12/31 05:42:54;;;;;;;1.87;1.20;;;;;;;15.13;53.07;99587.69;5066751;28;20024;-75
2023/12/31 05:45:20;;;;;;;1.40;0.93;;;;;;;15.82;51.88;99578.97;5050915;28;20458;-76
2023/12/31 05:47:48;;;;;;;1.27;1.00;;;;;;;15.76;52.23;99577.47;5055308;28;20055;-76
2023/12/31 05:50:15;;;;;;;3.03;1.50;;;;;;;15.26;52.68;99573.84;5050006;28;20021;-76
2023/12/31 05:52:40;;;;;;;1.63;1.20;;;;;;;16.19;50.69;99563.03;5062895;28;20476;-75
2023/12/31 05:55:06;;;;;;;1.90;1.10;;;;;;;15.89;51.06;99561.06;5071470;28;20093;-76
2023/12/31 05:57:32;;;;;;;2.30;1.30;;;;;;;15.59;52.03;99569.59;5068384;28;20119;-75
2023/12/31 05:59:59;;;;;;;4.23;1.40;;;;;;;15.13;52.84;99578.00;5069227;28;20111;-75
2023/12/31 06:02:24;;;;;;;1.87;1.47;;;;;;;15.84;51.64;99550.78;5057434;28;20025;-75
2023/12/31 06:04:50;;;;;;;2.23;1.13;;;;;;;15.75;51.24;99554.69;5066441;28;20425;-75
2023/12/31 06:07:15;;;;;;;1.90;1.20;;;;;;;16.15;50.83;99543.03;5049289;28;20028;-75
2023/12/31 06:09:41;;;;;;;1.20;1.10;;;;;;;15.49;52.31;99542.03;5066186;28;20115;-76
2023/12/31 06:12:06;;;;;;;3.60;1.30;;;;;;;16.13;51.18;99535.22;5053246;28;20081;-76
2023/12/31 06:14:32;;;;;;;2.80;1.33;;;;;;;16.69;49.67;99540.94;5067962;28;20020;-75
2023/12/31 06:16:57;;;;;;;1.50;1.30;;;;;;;16.64;49.12;99540.34;5049918;28;20036;-76
2023/12/31 06:19:23;;;;;;;1.63;1.10;;;;;;;15.39;51.42;99529.31;5070986;28;20030;-75
2023/12/31 06:21:48;;;;;;;2.63;1.40;;;;;;;15.23;52.92;99525.75;5067944;28;20094;-75
2023/12/31 06:24:14;;;;;;;5.07;1.60;;;;;;;15.63;51.55;99526.34;5049544;28;20086;-75
2023/12/31 06:26:39;;;;;;;2.23;1.17;;;;;;;15.52;52.64;99524.28;5062803;28;20116;-75
2023/12/31 06:29:04;;;;;;;1.40;1.27;;;;;;;15.08;53.33;99511.56;5067464;28;20025;-75
2023/12/31 06:31:30;;;;;;;1.50;1.20;;;;;;;15.61;51.88;99507.16;5057764;28;20517;-76
2023/12/31 06:33:55;;;;;;;2.37;1.00;;;;;;;15.91;51.42;99501.25;5049259;28;20032;-76
2023/12/31 06:36:20;;;;;;;4.10;1.13;;;;;;;16.07;50.52;99491.59;5048574;28;20056;-76
2023/12/31 06:38:46;;;;;;;1.33;1.07;;;;;;;16.32;50.95;99489.38;5064815;28;20032;-76
2023/12/31 06:41:11;;;;;;;2.33;1.27;;;;;;;16.32;50.74;99490.25;5056572;28;20017;-76
2023/12/31 06:43:37;;;;;;;2.03;1.43;;;;;;;16.78;49.31;99485.00;5066983;28;20021;-75
2023/12/31 06:46:03;;;;;;;1.13;1.03;;;;;;;16.32;50.23;99477.06;5074606;28;20024;-76
2023/12/31 06:48:29;;;;;;;3.13;1.20;;;;;;;15.78;51.41;99480.78;5060955;28;20179;-76
2023/12/31 06:50:54;;;;;;;1.93;1.20;;;;;;;16.45;49.63;99475.44;5054076;28;20468;-76
2023/12/31 06:53:20;;;;;;;2.53;1.73;;;;;;;16.18;50.71;99463.78;5066291;28;20031;-75
2023/12/31 06:55:46;;;;;;;2.40;1.30;;;;;;;16.56;49.42;99464.28;5051307;28;20040;-76
2023/12/31 06:58:12;;;;;;;1.23;0.90;;;;;;;16.39;49.49;99453.81;5057805;28;20024;-76
2023/12/31 07:00:38;;;;;;;1.63;1.20;;;;;;;16.43;49.70;99458.84;5049315;28;20035;-76
2023/12/31 07:03:03;;;;;;;2.00;1.20;;;;;;;16.61;49.38;99454.31;5049753;28;20399;-75
2023/12/31 07:05:29;;;;;;;1.93;1.10;;;;;;;16.56;49.47;99460.78;5063612;28;20021;-75
2023/12/31 07:07:54;;;;;;;2.90;1.73;;;;;;;16.33;50.75;99455.00;5061468;28;20032;-76
2023/12/31 07:10:20;;;;;;;1.77;1.27;;;;;;;16.27;51.09;99447.47;5056919;28;20447;-76
2023/12/31 07:12:45;;;;;;;1.57;1.23;;;;;;;16.25;51.56;99451.94;5056266;28;20099;-76
2023/12/31 07:15:11;;;;;;;2.43;1.50;;;;;;;16.10;52.36;99443.97;5073232;28;20033;-76
2023/12/31 07:17:36;;;;;;;2.17;1.37;;;;;;;15.91;53.52;99448.56;5069259;28;20056;-75
2023/12/31 07:20:05;;;;;;;1.60;1.23;;;;;;;16.43;52.16;99437.75;5053632;28;20025;-73
2023/12/31 07:22:31;;;;;;;3.27;1.23;;;;;;;15.42;54.64;99426.47;5059888;28;20075;-75
2023/12/31 07:24:58;;;;;;;2.37;1.70;;;;;;;15.93;53.93;99429.06;5063026;28;20454;-75
2023/12/31 07:27:23;;;;;;;1.63;1.20;;;;;;;15.73;54.45;99424.00;5045509;28;20022;-75
2023/12/31 07:29:48;;;;;;;1.20;1.10;;;;;;;15.08;56.23;99422.97;5058517;28;20045;-76
2023/12/31 07:32:14;;;;;;;2.27;1.50;;;;;;;15.61;56.07;99428.16;5052142;28;20036;-75
2023/12/31 07:34:39;;;;;;;3.97;1.60;;;;;;;15.41;56.78;99421.28;5066675;28;20502;-75
2023/12/31 07:37:05;;;;;;;1.20;1.10;;;;;;;15.54;56.20;99421.53;5055353;28;20477;-78
2023/12/31 07:39:32;;;;;;;2.07;1.60;;;;;;;15.75;56.36;99422.97;5064148;28;20041;-74
2023/12/31 07:41:58;;;;;;;1.60;1.30;;;;;;;15.06;57.95;99413.47;5053989;28;20044;-75
2023/12/31 07:44:23;;;;;;;2.47;1.30;;;;;;;15.00;58.74;99416.38;5067383;28;20361;-75
2023/12/31 07:46:49;;;;;;;2.37;1.57;;;;;;;15.25;57.64;99405.47;5071307;28;20052;-76
2023/12/31 07:49:14;;;;;;;3.93;1.87;;;;;;;15.26;58.04;99409.78;5063384;28;20029;-77
2023/12/31 07:51:39;;;;;;;2.40;1.27;;;;;;;16.20;55.79;99403.94;5068458;28;20056;-77
2023/12/31 07:54:05;;;;;;;1.70;1.40;;;;;;;15.59;56.84;99403.66;5054093;28;20017;-76
2023/12/31 07:56:30;;;;;;;1.97;1.30;;;;;;;15.40;58.26;99391.50;5049407;28;20075;-77
2023/12/31 07:58:55;;;;;;;3.67;3.03;;;;;;;16.33;55.66;99390.91;5052463;28;20464;-77
2023/12/31 08:01:21;;;;;;;2.57;1.40;;;;;;;15.47;57.94;99391.16;5052420;28;20036;-77
2023/12/31 08:03:46;;;;;;;2.13;1.50;;;;;;;15.25;58.16;99387.03;5052029;28;20029;-77
2023/12/31 08:06:12;;;;;;;3.13;1.50;;;;;;;15.60;59.03;99386.94;5052504;28;20432;-79
2023/12/31 08:08:37;;;;;;;2.10;1.50;;;;;;;15.38;59.40;99382.81;5054172;28;20523;-79
2023/12/31 08:11:02;;;;;;;4.17;1.63;;;;;;;15.99;57.92;99375.19;5050737;28;20056;-79
2023/12/31 08:13:31;;;;;;;3.03;1.87;;;;;;;15.55;58.36;99381.94;5049545;28;20063;-78
2023/12/31 08:15:56;;;;;;;1.83;1.37;;;;;;;15.73;57.75;99380.09;5043028;28;20037;-79
2023/12/31 08:18:22;;;;;;;3.23;1.40;;;;;;;15.40;58.80;99386.22;5032662;28;20463;-78
2023/12/31 08:20:48;;;;;;;3.17;1.73;;;;;;;15.94;58.28;99395.69;5056464;28;20031;-78
2023/12/31 08:23:13;;;;;;;2.53;2.03;;;;;;;15.33;59.26;99405.91;5046782;28;20033;-78
2023/12/31 08:25:38;;;;;;;2.40;1.63;;;;;;;15.20;61.37;99453.06;5047509;28;20026;-79
2023/12/31 08:28:04;;;;;;;2.57;1.60;;;;;;;15.10;63.35;99457.94;5061286;28;20033;-78
2023/12/31 08:30:30;;;;;;;1.87;1.50;;;;;;;14.28;65.55;99458.41;5063978;28;20081;-79
2023/12/31 08:32:55;;;;;;;5.37;1.40;;;;;;;14.82;64.05;99432.16;5052983;28;20028;-79
2023/12/31 08:35:26;;;;;;;5.47;1.00;;;;;;;14.52;62.93;99435.38;5061498;28;20032;-78
2023/12/31 08:37:52;;;;;;;1.03;0.93;;;;;;;14.63;63.39;99428.75;5051148;28;20558;-78
2023/12/31 08:40:19;;;;;;;2.50;0.93;;;;;;;14.83;62.20;99425.97;5058252;28;20511;-77
2023/12/31 08:42:45;;;;;;;3.77;0.90;;;;;;;13.84;64.35;99435.06;5058742;28;20032;-77
2023/12/31 08:45:10;;;;;;;4.13;1.20;;;;;;;14.31;62.22;99424.09;5051706;28;20088;-76
2023/12/31 08:47:37;;;;;;;0.93;0.80;;;;;;;14.35;62.84;99433.53;5051983;28;20091;-77
2023/12/31 08:50:08;;;;;;;0.73;0.60;;;;;;;13.86;65.07;99431.44;5053192;28;20396;-77
2023/12/31 08:52:35;;;;;;;0.90;0.50;;;;;;;14.60;62.21;99437.59;5054802;28;20028;-78
2023/12/31 08:55:00;;;;;;;0.20;0.20;;;;;;;14.20;63.85;99442.16;5052651;28;20032;-77
2023/12/31 08:57:26;;;;;;;0.40;0.30;;;;;;;14.70;62.57;99438.91;5052182;28;20033;-77
2023/12/31 08:59:51;;;;;;;3.23;0.37;;;;;;;14.70;62.21;99438.91;5050696;28;20389;-78
2023/12/31 09:02:16;;;;;;;0.40;0.40;;;;;;;14.34;63.99;99447.63;5047686;28;20443;-75
2023/12/31 09:04:42;;;;;;;0.63;0.40;;;;;;;14.18;61.63;99447.47;5043690;28;20029;-75
2023/12/31 09:07:07;;;;;;;1.37;0.70;;;;;;;14.33;63.02;99440.66;5050044;28;20032;-75
2023/12/31 09:09:32;;;;;;;0.60;0.50;;;;;;;14.28;63.31;99442.63;5024833;28;20049;-75
2023/12/31 09:11:58;;;;;;;0.87;0.70;;;;;;;14.49;62.60;99429.38;5049050;28;20035;-75
2023/12/31 09:14:24;;;;;;;0.80;0.80;;;;;;;13.86;65.53;99406.94;5050255;28;20021;-75
2023/12/31 09:16:50;;;;;;;1.10;0.77;;;;;;;14.02;63.98;99426.31;5052975;28;20032;-76
2023/12/31 09:19:15;;;;;;;2.17;0.90;;;;;;;14.68;61.37;99430.22;5044707;28;20025;-75
2023/12/31 09:21:41;;;;;;;2.50;1.53;;;;;;;14.24;63.95;99438.44;5051678;28;20074;-75
2023/12/31 09:24:06;;;;;;;0.93;0.70;;;;;;;14.04;63.23;99428.88;5048589;28;20028;-75
2023/12/31 09:26:32;;;;;;;3.40;0.60;;;;;;;14.30;61.34;99421.53;5051464;28;20040;-76
2023/12/31 09:28:57;;;;;;;1.37;0.70;;;;;;;13.68;63.07;99421.75;5051158;28;20029;-75
2023/12/31 09:31:25;;;;;;;3.20;0.40;;;;;;;14.66;60.78;99418.94;5052113;28;20024;-75
2023/12/31 09:33:50;;;;;;;2.43;0.87;;;;;;;14.00;60.54;99411.53;5069489;28;20069;-75
2023/12/31 09:36:16;;;;;;;4.97;0.80;;;;;;;15.10;58.39;99425.53;5016926;28;20048;-76
2023/12/31 09:38:41;;;;;;;2.20;0.60;;;;;;;14.44;61.15;99432.25;5047633;28;20036;-75
2023/12/31 09:41:07;;;;;;;1.33;0.50;;;;;;;14.67;60.72;99428.53;5055262;28;20040;-75
2023/12/31 09:43:34;;;;;;;1.70;1.00;;;;;;;14.40;60.39;99421.03;5044302;28;20036;-75
2023/12/31 09:46:02;;;;;;;7.40;3.63;;;;;;;15.55;57.69;99421.44;5040956;28;20074;-75
2023/12/31 09:48:29;;;;;;;3.70;1.10;;;;;;;14.80;58.88;99427.94;5045646;28;20049;-75
2023/12/31 09:50:55;;;;;;;1.23;0.70;;;;;;;14.49;60.14;99424.13;5030371;28;20045;-75
2023/12/31 09:53:22;;;;;;;2.57;0.60;;;;;;;14.88;58.88;99426.59;5028264;28;20028;-74
2023/12/31 09:55:49;;;;;;;1.63;0.60;;;;;;;15.05;58.50;99428.38;5047057;28;20491;-75
2023/12/31 09:58:16;;;;;;;2.27;0.60;;;;;;;15.00;57.65;99429.53;5050916;28;20510;-75
2023/12/31 10:00:42;;;;;;;1.90;0.90;;;;;;;15.29;57.66;99420.16;5035087;28;20492;-75
2023/12/31 10:03:09;;;;;;;1.27;0.90;;;;;;;15.38;58.34;99421.47;5047434;28;20040;-75
2023/12/31 10:05:38;;;;;;;2.20;1.03;;;;;;;15.33;57.69;99424.34;5046811;28;20112;-76
2023/12/31 10:08:05;;;;;;;2.33;0.93;;;;;;;15.98;55.55;99420.94;5047961;28;20026;-75
2023/12/31 10:10:31;;;;;;;1.90;0.80;;;;;;;15.00;58.62;99435.69;5038624;28;20024;-75
2023/12/31 10:12:56;;;;;;;2.03;1.03;;;;;;;15.36;56.94;99415.41;5064215;28;20111;-75
2023/12/31 10:15:21;;;;;;;2.17;1.10;;;;;;;15.34;57.03;99420.75;5064181;28;20049;-75
2023/12/31 10:17:47;;;;;;;2.80;1.40;;;;;;;15.36;57.72;99421.53;5062177;28;20038;-76
2023/12/31 10:20:12;;;;;;;2.20;1.43;;;;;;;15.20;58.43;99426.75;5062741;28;20056;-76
2023/12/31 10:22:38;;;;;;;2.43;0.90;;;;;;;15.46;58.76;99410.53;5053762;28;20033;-76
2023/12/31 10:25:16;;;;;;;0.83;0.80;;;;;;;14.69;61.55;99418.78;5048344;28;20046;-75
2023/12/31 10:27:47;;;;;;;1.60;1.07;;;;;;;15.34;59.31;99404.97;5058840;28;20037;-76
2023/12/31 10:30:13;;;;;;;3.47;1.43;;;;;;;15.64;59.16;99409.53;5040711;28;20025;-75
2023/12/31 10:32:38;;;;;;;2.23;1.33;;;;;;;15.40;60.03;99393.25;5058500;28;20028;-75
2023/12/31 10:35:05;;;;;;;1.70;1.07;;;;;;;14.88;61.25;99404.72;5068045;28;20024;-75
2023/12/31 10:37:31;;;;;;;3.50;1.33;;;;;;;15.29;61.51;99385.94;5063713;28;20063;-75
2023/12/31 10:39:56;;;;;;;1.90;1.03;;;;;;;14.90;60.04;99387.06;5058413;28;20052;-75
2023/12/31 10:42:22;;;;;;;2.47;0.97;;;;;;;14.58;61.00;99392.13;5050587;28;20111;-75
2023/12/31 10:44:53;;;;;;;1.13;0.87;;;;;;;15.36;59.80;99383.81;5047243;28;20033;-75
2023/12/31 10:47:22;;;;;;;1.33;0.93;;;;;;;14.61;61.66;99406.91;5055961;28;20553;-76
2023/12/31 10:49:49;;;;;;;3.10;1.33;;;;;;;14.26;63.52;99405.09;5068999;28;20071;-76
2023/12/31 10:52:15;;;;;;;1.00;0.90;;;;;;;12.35;70.31;99417.72;5062096;28;20048;-75
2023/12/31 10:54:51;;;;;;;0.50;0.50;;;;;;;13.49;69.55;99416.47;5067572;28;20536;-75
2023/12/31 10:57:19;;;;;;;0.90;0.90;;;;;;;13.09;69.57;99418.19;5040805;28;20132;-74
2023/12/31 10:59:47;;;;;;;0.83;0.50;;;;;;;12.48;72.46;99432.94;5054547;28;20028;-75
2023/12/31 11:02:18;;;;;;;0.00;0.00;;;;;;;13.31;70.85;99431.25;5068990;28;20036;-76
2023/12/31 11:04:45;;;;;;;0.00;0.00;;;;;;;13.82;66.39;99440.38;5040288;28;20021;-75
2023/12/31 11:07:13;;;;;;;0.00;0.00;;;;;;;13.39;68.00;99464.16;5041524;28;20506;-76
2023/12/31 11:09:41;;;;;;;0.00;0.00;;;;;;;13.89;66.44;99467.22;5051116;28;20484;-76
2023/12/31 11:12:08;;;;;;;0.00;0.00;;;;;;;14.17;66.03;99473.84;5049762;28;20020;-76
2023/12/31 11:14:36;;;;;;;0.00;0.00;;;;;;;12.94;68.86;99488.75;5048725;28;20025;-76
2023/12/31 11:17:20;;;;;;;0.00;0.00;;;;;;;13.01;69.71;99511.19;5049318;28;20025;-76
2023/12/31 11:20:23;;;;;;;0.00;0.00;;;;;;;13.61;68.16;99505.19;5068184;28;20032;-76
2023/12/31 11:23:07;;;;;;;0.03;0.03;;;;;;;13.68;66.37;99490.03;5061253;28;20037;-75
2023/12/31 11:25:33;;;;;;;0.00;0.00;;;;;;;13.55;66.91;99501.06;5046503;28;20125;-76
2023/12/31 11:27:58;;;;;;;0.00;0.00;;;;;;;13.84;65.06;99477.09;5057592;28;20131;-76